Time;durP1;ratioP1;P1;durP2;ratioP2;P2;SDS_P1;SDS_P2;PMS_P1;PMS_P2;Temp;Humidity;BMP_temperature;BMP_pressure;BME280_temperature;BME280_humidity;BME280_pressure;Samples;Min_cycle;Max_cycle;Signal;HPM_P1;HPM_P2
2023/01/17 00:02:21;;;;;;;1.00;0.52;;;4.10;99.90;;;;;;6311267;22;20026;-77
2023/01/17 00:10:18;;;;;;;0.88;0.50;;;4.70;99.90;;;;;;6312082;22;20026;-77
2023/01/17 00:12:55;;;;;;;4.53;0.52;;;3.60;99.90;;;;;;6313477;22;20068;-77
2023/01/17 00:15:22;;;;;;;1.77;0.43;;;3.70;99.90;;;;;;6313646;22;20003;-77
2023/01/17 00:17:52;;;;;;;0.68;0.40;;;3.50;99.90;;;;;;6312836;22;20057;-77
2023/01/17 00:26:10;;;;;;;3.40;0.63;;;4.10;99.90;;;;;;6312880;22;20015;-77
2023/01/17 01:35:49;;;;;;;3.25;0.77;;;3.90;99.90;;;;;;6318730;22;20019;-77
2023/01/17 01:38:15;;;;;;;6.20;1.02;;;4.10;99.90;;;;;;6317203;22;20229;-77
2023/01/17 01:40:46;;;;;;;2.45;0.60;;;4.40;99.90;;;;;;6267038;22;20029;-76
2023/01/17 01:43:14;;;;;;;4.43;0.90;;;5.70;99.90;;;;;;6315525;22;20066;-76
2023/01/17 01:45:45;;;;;;;3.78;0.60;;;4.00;99.90;;;;;;6318068;22;20064;-75
2023/01/17 01:48:35;;;;;;;5.32;0.98;;;4.10;99.90;;;;;;6290785;22;20011;-76
2023/01/17 01:51:07;;;;;;;4.60;0.85;;;4.20;99.90;;;;;;6318069;22;20014;-75
2023/01/17 01:53:39;;;;;;;4.57;0.45;;;4.10;99.90;;;;;;6291557;22;20058;-76
2023/01/17 01:56:09;;;;;;;2.30;1.08;;;4.70;99.90;;;;;;6269603;22;20015;-75
2023/01/17 01:58:36;;;;;;;2.80;0.50;;;3.30;99.90;;;;;;6260909;22;20042;-76
2023/01/17 02:01:04;;;;;;;1.83;0.40;;;3.70;99.90;;;;;;6287192;22;20266;-77
2023/01/17 02:03:31;;;;;;;1.38;0.50;;;3.60;99.90;;;;;;6259679;22;20689;-78
2023/01/17 02:06:08;;;;;;;1.52;0.50;;;3.80;99.90;;;;;;6261950;22;20019;-77
2023/01/17 02:08:35;;;;;;;5.80;0.63;;;3.40;99.90;;;;;;6260903;22;20179;-77
2023/01/17 02:11:01;;;;;;;3.60;0.70;;;4.80;99.90;;;;;;6286347;22;20066;-78
2023/01/17 02:13:28;;;;;;;5.00;0.70;;;4.80;99.90;;;;;;6258387;22;20472;-76
2023/01/17 02:16:04;;;;;;;3.85;0.82;;;3.50;99.90;;;;;;6234318;22;20026;-77
2023/01/17 02:18:42;;;;;;;8.57;1.20;;;4.00;99.90;;;;;;6284176;22;20325;-77
2023/01/17 02:21:36;;;;;;;5.20;0.80;;;3.80;99.90;;;;;;6259253;22;20026;-76
2023/01/17 02:24:29;;;;;;;6.72;1.17;;;3.90;99.90;;;;;;6285675;22;20018;-78
2023/01/17 02:26:58;;;;;;;10.60;1.48;;;3.70;99.90;;;;;;6260743;22;20011;-77
2023/01/17 02:29:58;;;;;;;6.20;0.90;;;4.10;99.90;;;;;;6283861;22;20070;-77
2023/01/17 02:32:34;;;;;;;4.00;0.90;;;4.10;99.90;;;;;;6284887;22;20014;-77
2023/01/17 02:35:23;;;;;;;6.47;0.95;;;3.70;99.90;;;;;;6257212;22;20077;-76
2023/01/17 02:38:10;;;;;;;6.47;0.90;;;3.50;99.90;;;;;;6284646;22;20011;-77
2023/01/17 02:40:51;;;;;;;10.13;1.45;;;4.10;99.90;;;;;;6258365;22;20038;-77
2023/01/17 02:43:19;;;;;;;5.47;1.05;;;3.80;99.90;;;;;;6258685;22;20018;-76
2023/01/17 02:45:44;;;;;;;7.35;0.93;;;3.60;99.90;;;;;;6283439;22;20077;-77
2023/01/17 02:48:13;;;;;;;7.18;0.90;;;4.10;99.90;;;;;;6258281;22;20027;-76
2023/01/17 02:51:16;;;;;;;5.72;0.80;;;4.10;99.90;;;;;;6258659;22;20022;-76
2023/01/17 02:54:10;;;;;;;4.43;0.70;;;3.80;99.90;;;;;;6283865;22;20022;-76
2023/01/17 02:56:51;;;;;;;7.85;1.10;;;3.90;99.90;;;;;;6296463;22;20023;-77
2023/01/17 02:59:17;;;;;;;2.90;0.65;;;3.80;99.90;;;;;;6283701;22;20011;-77
2023/01/17 03:01:55;;;;;;;4.63;1.05;;;3.80;99.90;;;;;;6283234;22;20294;-77
2023/01/17 03:04:31;;;;;;;8.40;0.82;;;3.70;99.90;;;;;;6309675;22;20018;-76
2023/01/17 03:07:04;;;;;;;3.60;0.70;;;3.60;99.90;;;;;;6308408;22;20237;-77
2023/01/17 03:09:31;;;;;;;8.50;1.55;;;3.90;99.90;;;;;;6284263;22;20071;-77
2023/01/17 03:11:58;;;;;;;5.22;0.88;;;5.60;99.90;;;;;;6260959;22;20051;-76
2023/01/17 03:14:23;;;;;;;8.35;1.00;;;4.00;99.90;;;;;;6286005;22;20007;-76
2023/01/17 03:16:49;;;;;;;3.83;0.90;;;3.80;99.90;;;;;;6309320;22;20344;-76
2023/01/17 03:19:15;;;;;;;4.13;1.10;;;3.80;99.90;;;;;;6260163;22;20058;-78
2023/01/17 03:21:41;;;;;;;4.82;0.98;;;3.30;99.90;;;;;;6311791;22;20019;-77
2023/01/17 03:24:07;;;;;;;3.53;1.10;;;3.50;99.90;;;;;;6285461;22;20018;-77
2023/01/17 03:26:33;;;;;;;2.90;0.98;;;3.50;99.90;;;;;;6310917;22;20055;-76
2023/01/17 03:28:59;;;;;;;6.43;1.02;;;3.60;99.90;;;;;;6286296;22;20014;-76
2023/01/17 03:31:24;;;;;;;8.80;1.13;;;3.70;99.90;;;;;;6285731;22;20007;-77
2023/01/17 03:34:06;;;;;;;6.97;1.00;;;3.80;99.90;;;;;;6285880;22;20058;-78
2023/01/17 03:36:32;;;;;;;5.10;0.85;;;3.60;99.90;;;;;;6286479;22;20011;-78
2023/01/17 03:38:58;;;;;;;4.10;0.85;;;3.50;99.90;;;;;;6260583;22;20007;-78
2023/01/17 03:45:18;;;;;;;10.43;1.73;;;4.10;99.90;;;;;;6277000;22;20034;-77
2023/01/17 03:47:44;;;;;;;6.00;1.20;;;2.80;99.90;;;;;;6287265;22;20078;-78
2023/01/17 03:50:12;;;;;;;6.15;1.15;;;3.00;99.90;;;;;;6288282;22;20007;-77
2023/01/17 03:52:38;;;;;;;5.18;1.38;;;3.00;99.90;;;;;;6313298;22;20089;-76
2023/01/17 03:55:04;;;;;;;9.00;1.17;;;3.30;99.90;;;;;;6262246;22;20008;-76
2023/01/17 03:57:30;;;;;;;2.80;0.75;;;3.30;99.90;;;;;;6261011;22;20102;-77
2023/01/17 03:59:56;;;;;;;8.93;1.65;;;3.00;99.90;;;;;;6262251;22;20313;-76
2023/01/17 04:02:23;;;;;;;5.65;1.60;;;3.00;99.90;;;;;;6287016;22;20023;-76
2023/01/17 04:05:11;;;;;;;6.70;1.17;;;3.30;99.90;;;;;;6262729;22;20286;-75
2023/01/17 04:07:37;;;;;;;8.80;0.85;;;3.20;99.90;;;;;;6263100;22;20012;-76
2023/01/17 04:10:03;;;;;;;6.63;1.00;;;3.00;99.90;;;;;;6237239;22;20050;-77
2023/01/17 04:12:29;;;;;;;4.53;1.10;;;2.80;99.90;;;;;;6287685;22;20029;-77
2023/01/17 04:14:54;;;;;;;4.75;1.30;;;3.10;99.90;;;;;;6237057;22;20007;-75
2023/01/17 04:17:20;;;;;;;5.03;1.17;;;2.50;99.90;;;;;;6260483;22;20019;-77
2023/01/17 04:19:46;;;;;;;7.30;1.30;;;3.80;99.90;;;;;;6236395;22;20011;-77
2023/01/17 04:22:12;;;;;;;6.05;1.05;;;3.90;99.90;;;;;;6260984;22;20121;-78
2023/01/17 04:24:37;;;;;;;5.25;1.15;;;4.80;99.90;;;;;;6236061;22;20057;-76
2023/01/17 04:27:04;;;;;;;8.45;0.90;;;3.10;99.90;;;;;;6287497;22;20018;-77
2023/01/17 04:29:31;;;;;;;9.48;1.15;;;2.80;99.90;;;;;;6235883;22;20035;-77
2023/01/17 04:31:57;;;;;;;2.28;0.70;;;2.90;99.90;;;;;;6287881;22;20007;-76
2023/01/17 04:34:23;;;;;;;4.78;0.88;;;2.80;99.90;;;;;;6236138;22;20014;-78
2023/01/17 04:36:48;;;;;;;9.70;1.98;;;2.70;99.90;;;;;;6237134;22;20007;-78
2023/01/17 04:39:14;;;;;;;6.53;1.48;;;2.80;99.90;;;;;;6285474;22;20014;-79
2023/01/17 04:41:40;;;;;;;6.47;1.10;;;3.20;99.90;;;;;;6236223;22;20014;-78
2023/01/17 04:44:05;;;;;;;3.83;1.30;;;3.60;99.90;;;;;;6261548;22;20061;-77
2023/01/17 04:46:31;;;;;;;2.53;0.85;;;2.80;99.90;;;;;;6236456;22;20019;-79
2023/01/17 04:48:58;;;;;;;9.63;1.70;;;2.70;99.90;;;;;;6260895;22;20015;-77
2023/01/17 04:51:23;;;;;;;5.18;0.90;;;2.60;99.90;;;;;;6237057;22;20022;-79
2023/01/17 04:53:49;;;;;;;5.75;1.13;;;2.60;99.90;;;;;;6262006;22;20007;-78
2023/01/17 04:56:15;;;;;;;4.38;1.30;;;2.50;99.90;;;;;;6236402;22;20338;-78
2023/01/17 04:58:40;;;;;;;3.63;1.30;;;2.60;99.90;;;;;;6260919;22;20201;-77
2023/01/17 05:01:07;;;;;;;11.05;1.00;;;2.40;99.90;;;;;;6236904;22;20316;-79
2023/01/17 05:03:33;;;;;;;6.28;1.10;;;2.50;99.90;;;;;;6287171;22;20359;-78
2023/01/17 05:06:00;;;;;;;3.70;1.15;;;2.40;99.90;;;;;;6261663;22;20046;-78
2023/01/17 05:08:25;;;;;;;7.22;1.10;;;2.40;99.90;;;;;;6261772;22;20023;-77
2023/01/17 05:10:51;;;;;;;10.07;1.10;;;2.80;99.90;;;;;;6284930;22;20041;-77
2023/01/17 05:13:17;;;;;;;2.67;0.70;;;2.80;99.90;;;;;;6262141;22;20011;-77
2023/01/17 05:15:44;;;;;;;5.72;0.93;;;2.50;99.90;;;;;;6235964;22;20015;-77
2023/01/17 05:18:14;;;;;;;6.15;1.50;;;3.40;99.90;;;;;;6236716;22;20007;-76
2023/01/17 05:20:40;;;;;;;2.95;1.10;;;2.10;99.90;;;;;;6260204;22;20011;-77
2023/01/17 05:23:06;;;;;;;6.78;1.00;;;2.40;99.90;;;;;;6261527;22;20026;-78
2023/01/17 05:25:32;;;;;;;8.20;1.10;;;2.10;99.90;;;;;;6286276;22;20302;-77
2023/01/17 05:27:59;;;;;;;4.45;1.00;;;3.60;99.90;;;;;;6261860;22;20015;-77
2023/01/17 05:30:26;;;;;;;6.43;1.00;;;3.50;99.90;;;;;;6259941;22;20074;-77
2023/01/17 05:32:53;;;;;;;5.78;1.25;;;2.40;99.90;;;;;;6261797;22;20064;-77
2023/01/17 05:35:21;;;;;;;4.60;0.85;;;2.50;99.90;;;;;;6286679;22;20014;-78
2023/01/17 05:37:48;;;;;;;4.80;0.88;;;2.70;99.90;;;;;;6261135;22;20023;-78
2023/01/17 05:40:52;;;;;;;2.17;0.90;;;3.70;99.90;;;;;;6286652;22;20011;-77
2023/01/17 05:43:18;;;;;;;4.47;0.68;;;2.60;99.90;;;;;;6259043;22;20011;-76
2023/01/17 05:45:47;;;;;;;3.33;0.82;;;2.20;99.90;;;;;;6286428;22;20044;-78
2023/01/17 05:48:12;;;;;;;4.75;0.88;;;2.20;99.90;;;;;;6286600;22;20058;-77
2023/01/17 05:50:38;;;;;;;6.25;1.00;;;3.00;99.90;;;;;;6260281;22;20210;-79
2023/01/17 05:53:08;;;;;;;6.45;0.80;;;3.00;99.90;;;;;;6286826;22;20038;-77
2023/01/17 05:55:35;;;;;;;6.18;1.00;;;3.60;99.90;;;;;;6263971;22;20015;-79
2023/01/17 05:58:02;;;;;;;5.47;1.02;;;1.70;99.90;;;;;;6293111;22;20019;-81
2023/01/17 06:00:31;;;;;;;5.18;1.55;;;1.70;99.90;;;;;;6292925;22;20010;-79
2023/01/17 06:02:58;;;;;;;6.68;1.55;;;1.70;99.90;;;;;;6268485;22;20017;-80
2023/01/17 06:05:25;;;;;;;7.00;1.13;;;4.10;99.90;;;;;;6292942;22;20006;-78
2023/01/17 06:07:51;;;;;;;5.38;0.95;;;3.60;99.90;;;;;;6292384;22;20018;-82
2023/01/17 06:10:19;;;;;;;3.40;1.02;;;1.80;99.90;;;;;;6266753;22;20306;-81
2023/01/17 06:12:46;;;;;;;3.47;0.90;;;1.50;99.90;;;;;;6291654;22;20011;-79
2023/01/17 06:15:13;;;;;;;4.63;1.20;;;2.80;99.90;;;;;;6317046;22;20056;-78
2023/01/17 06:17:39;;;;;;;3.78;1.20;;;2.00;99.90;;;;;;6317612;22;20050;-79
2023/01/17 06:20:06;;;;;;;7.30;1.65;;;3.40;99.90;;;;;;6292665;22;20155;-79
2023/01/17 06:22:32;;;;;;;5.63;1.27;;;3.50;99.90;;;;;;6265258;22;20011;-77
2023/01/17 06:24:58;;;;;;;4.38;1.23;;;3.20;99.90;;;;;;6291990;22;20343;-78
2023/01/17 06:27:24;;;;;;;4.32;1.27;;;1.60;99.90;;;;;;6291509;22;20011;-78
2023/01/17 06:29:50;;;;;;;6.35;1.42;;;3.10;99.90;;;;;;6317591;22;20158;-78
2023/01/17 06:32:16;;;;;;;7.50;2.58;;;1.60;99.90;;;;;;6266021;22;20007;-77
2023/01/17 06:34:41;;;;;;;9.45;2.28;;;3.40;99.90;;;;;;6265781;22;20026;-78
2023/01/17 06:37:09;;;;;;;6.15;1.40;;;1.60;99.90;;;;;;6316434;22;20018;-79
2023/01/17 06:39:34;;;;;;;12.85;2.67;;;1.50;99.90;;;;;;6266615;22;20322;-76
2023/01/17 06:42:00;;;;;;;6.20;1.00;;;1.80;99.90;;;;;;6316326;22;20018;-77
2023/01/17 06:44:26;;;;;;;5.32;1.40;;;1.60;99.90;;;;;;6264745;22;20167;-78
2023/01/17 06:46:52;;;;;;;7.97;1.50;;;3.50;99.90;;;;;;6291336;22;20015;-77
2023/01/17 06:49:18;;;;;;;3.53;1.30;;;1.60;99.90;;;;;;6292545;22;20062;-78
2023/01/17 06:51:44;;;;;;;5.70;1.10;;;1.30;99.90;;;;;;6292066;22;20316;-79
2023/01/17 06:54:10;;;;;;;3.90;0.82;;;3.10;99.90;;;;;;6292118;22;20013;-78
2023/01/17 06:56:36;;;;;;;6.20;1.00;;;2.90;99.90;;;;;;6274233;22;20046;-77
2023/01/17 06:59:05;;;;;;;6.82;1.00;;;1.40;99.90;;;;;;6261057;22;20213;-76
2023/01/17 07:01:31;;;;;;;5.47;0.95;;;1.50;99.90;;;;;;6260185;22;20038;-76
2023/01/17 07:03:59;;;;;;;4.03;1.00;;;3.30;99.90;;;;;;6235886;22;20007;-78
2023/01/17 07:06:27;;;;;;;3.47;1.17;;;1.40;99.90;;;;;;6259943;22;20034;-78
2023/01/17 07:08:54;;;;;;;3.45;0.70;;;1.30;99.90;;;;;;6283405;22;20019;-79
2023/01/17 07:11:20;;;;;;;4.75;1.05;;;3.30;99.90;;;;;;6284696;22;20035;-79
2023/01/17 07:13:46;;;;;;;6.25;0.93;;;1.20;99.90;;;;;;6284532;22;20015;-77
2023/01/17 07:16:12;;;;;;;2.63;1.02;;;1.00;99.90;;;;;;6235369;22;20069;-77
2023/01/17 07:18:42;;;;;;;3.03;1.05;;;3.00;99.90;;;;;;6259526;22;20097;-77
2023/01/17 07:21:14;;;;;;;4.70;0.90;;;3.00;99.90;;;;;;6284971;22;20019;-77
2023/01/17 07:23:40;;;;;;;5.28;1.02;;;1.50;99.90;;;;;;6257231;22;20045;-77
2023/01/17 07:26:06;;;;;;;4.90;0.90;;;1.30;99.90;;;;;;6285517;22;20011;-77
2023/01/17 07:28:32;;;;;;;4.40;1.17;;;2.70;99.90;;;;;;6259986;22;20017;-77
2023/01/17 07:30:57;;;;;;;9.05;1.75;;;1.30;99.90;;;;;;6259218;22;20051;-76
2023/01/17 07:33:23;;;;;;;5.65;1.50;;;1.00;99.90;;;;;;6258869;22;20015;-78
2023/01/17 07:35:49;;;;;;;6.00;2.25;;;1.30;99.90;;;;;;6285181;22;20014;-78
2023/01/17 07:38:17;;;;;;;6.43;2.15;;;2.00;99.90;;;;;;6260139;22;20227;-77
2023/01/17 07:40:46;;;;;;;3.65;1.70;;;2.40;99.90;;;;;;6259957;22;20011;-76
2023/01/17 07:43:15;;;;;;;4.28;1.75;;;3.20;99.90;;;;;;6259704;22;20498;-76
2023/01/17 07:45:49;;;;;;;3.75;1.95;;;1.40;99.90;;;;;;6234714;22;20011;-76
2023/01/17 07:48:16;;;;;;;3.20;1.50;;;1.70;99.90;;;;;;6283997;22;20106;-76
2023/01/17 07:50:42;;;;;;;3.83;0.98;;;2.60;99.90;;;;;;6285069;22;20053;-76
2023/01/17 07:53:08;;;;;;;5.45;0.98;;;3.00;99.90;;;;;;6259052;22;20078;-77
2023/01/17 07:55:34;;;;;;;2.85;1.00;;;3.20;99.90;;;;;;6287928;22;20054;-78
2023/01/17 07:58:00;;;;;;;4.53;1.17;;;1.40;99.90;;;;;;6315074;22;20018;-77
2023/01/17 08:00:26;;;;;;;5.57;1.30;;;1.20;99.90;;;;;;6289313;22;20007;-76
2023/01/17 08:02:56;;;;;;;3.22;0.90;;;2.00;99.90;;;;;;6316042;22;20011;-76
2023/01/17 08:05:22;;;;;;;3.08;0.82;;;3.00;99.90;;;;;;6290579;22;20015;-76
2023/01/17 08:07:48;;;;;;;2.28;0.80;;;2.80;99.90;;;;;;6264124;22;20329;-77
2023/01/17 08:10:20;;;;;;;2.03;1.20;;;1.70;99.90;;;;;;6289898;22;20007;-77
2023/01/17 08:13:12;;;;;;;2.88;0.98;;;1.10;99.90;;;;;;6314997;22;20201;-77
2023/01/17 08:15:37;;;;;;;5.43;1.10;;;2.40;99.90;;;;;;6257835;22;20065;-77
2023/01/17 08:18:03;;;;;;;9.27;1.42;;;3.40;99.90;;;;;;6264558;22;20011;-76
2023/01/17 08:20:29;;;;;;;3.38;1.00;;;1.50;99.90;;;;;;6264701;22;20019;-77
2023/01/17 08:22:55;;;;;;;3.65;1.00;;;2.60;99.90;;;;;;6315345;22;20011;-78
2023/01/17 08:25:27;;;;;;;3.17;1.08;;;1.50;99.90;;;;;;6289660;22;20018;-78
2023/01/17 08:27:56;;;;;;;4.18;1.13;;;1.50;99.90;;;;;;6264282;22;20015;-75
2023/01/17 08:30:22;;;;;;;2.92;0.82;;;3.20;99.90;;;;;;6290627;22;20357;-74
2023/01/17 08:32:48;;;;;;;4.43;1.08;;;1.60;99.90;;;;;;6291312;22;20015;-75
2023/01/17 08:35:14;;;;;;;5.38;1.40;;;2.30;99.90;;;;;;6291698;22;20016;-75
2023/01/17 08:37:39;;;;;;;4.47;1.50;;;1.50;99.90;;;;;;6317536;22;20010;-75
2023/01/17 08:40:07;;;;;;;5.10;1.95;;;3.60;99.90;;;;;;6290261;22;20181;-74
2023/01/17 08:42:38;;;;;;;3.53;1.13;;;1.70;99.90;;;;;;6316085;22;20171;-74
2023/01/17 08:45:05;;;;;;;3.97;1.15;;;2.30;99.90;;;;;;6289682;22;20025;-74
2023/01/17 08:47:32;;;;;;;2.58;0.90;;;2.30;99.90;;;;;;6286650;22;20015;-75
2023/01/17 08:49:59;;;;;;;5.18;1.30;;;2.60;99.90;;;;;;6263516;22;20357;-75
2023/01/17 08:52:25;;;;;;;4.07;1.05;;;2.60;99.90;;;;;;6315553;22;20007;-75
2023/01/17 08:54:52;;;;;;;2.00;0.90;;;2.70;99.90;;;;;;6265029;22;20293;-75
2023/01/17 08:57:20;;;;;;;5.82;1.00;;;2.70;99.90;;;;;;6286196;22;20019;-75
2023/01/17 08:59:46;;;;;;;5.32;1.10;;;3.00;99.90;;;;;;6310884;22;20018;-75
2023/01/17 09:02:17;;;;;;;3.05;0.88;;;2.90;99.90;;;;;;6260791;22;20003;-76
2023/01/17 09:04:52;;;;;;;2.40;0.70;;;2.80;99.90;;;;;;6311360;22;20256;-77
2023/01/17 09:07:19;;;;;;;4.70;1.10;;;1.30;99.90;;;;;;6285952;22;20011;-76
2023/01/17 09:09:45;;;;;;;3.38;1.10;;;3.00;99.90;;;;;;6284762;22;20007;-76
2023/01/17 09:12:11;;;;;;;3.97;1.08;;;2.80;99.90;;;;;;6285842;22;20306;-76
2023/01/17 09:14:38;;;;;;;1.85;0.80;;;3.00;99.90;;;;;;6285197;22;20007;-76
2023/01/17 09:17:05;;;;;;;3.70;1.10;;;4.80;99.90;;;;;;6311095;22;20017;-76
2023/01/17 09:19:31;;;;;;;2.10;0.80;;;4.30;99.90;;;;;;6285073;22;20011;-75
2023/01/17 09:21:57;;;;;;;2.55;0.77;;;3.10;99.90;;;;;;6285479;22;20011;-76
2023/01/17 09:24:23;;;;;;;3.47;1.08;;;3.00;99.90;;;;;;6285596;22;20341;-75
2023/01/17 09:26:53;;;;;;;2.83;1.00;;;3.40;99.90;;;;;;6309853;22;20019;-77
2023/01/17 09:29:38;;;;;;;5.43;0.90;;;4.80;99.90;;;;;;6308036;22;20182;-75
2023/01/17 09:32:04;;;;;;;2.42;0.70;;;5.30;99.90;;;;;;6259299;22;20023;-77
2023/01/17 09:34:29;;;;;;;1.13;0.65;;;6.00;99.90;;;;;;6285248;22;20182;-77
2023/01/17 09:36:55;;;;;;;3.90;1.00;;;5.10;99.90;;;;;;6284863;22;20019;-78
2023/01/17 09:39:21;;;;;;;4.72;0.70;;;5.30;99.90;;;;;;6260041;22;20054;-76
2023/01/17 09:41:47;;;;;;;3.20;0.90;;;5.50;99.90;;;;;;6309714;22;20022;-76
2023/01/17 09:44:37;;;;;;;3.00;0.88;;;5.80;99.90;;;;;;6285708;22;20011;-77
2023/01/17 09:47:30;;;;;;;2.25;0.90;;;6.20;99.90;;;;;;6310562;22;20007;-76
2023/01/17 09:50:21;;;;;;;1.83;0.80;;;6.70;99.90;;;;;;6310437;22;20067;-74
2023/01/17 09:52:47;;;;;;;1.95;0.70;;;5.80;99.90;;;;;;6309731;22;20011;-76
2023/01/17 09:55:17;;;;;;;4.18;0.63;;;5.80;99.90;;;;;;6285378;22;20041;-75
2023/01/17 09:57:59;;;;;;;3.83;0.90;;;5.50;99.90;;;;;;6309924;22;20023;-76
2023/01/17 10:00:48;;;;;;;4.80;0.90;;;5.10;99.90;;;;;;6284645;22;20346;-75
2023/01/17 10:03:24;;;;;;;2.17;0.80;;;5.00;99.90;;;;;;6284590;22;20213;-76
2023/01/17 10:06:29;;;;;;;0.98;0.40;;;5.10;99.90;;;;;;6310576;22;20011;-74
2023/01/17 10:09:15;;;;;;;1.55;0.50;;;4.80;99.90;;;;;;6310445;22;20362;-74
2023/01/17 10:11:59;;;;;;;0.63;0.40;;;4.80;99.90;;;;;;6309165;22;20035;-76
2023/01/17 10:14:33;;;;;;;0.60;0.37;;;5.00;99.90;;;;;;6310188;22;20007;-74
2023/01/17 10:17:37;;;;;;;3.30;0.40;;;5.00;99.90;;;;;;6284385;22;20226;-75
2023/01/17 10:20:37;;;;;;;0.90;0.40;;;4.90;99.90;;;;;;6277726;22;20283;-76
2023/01/17 10:23:05;;;;;;;0.47;0.40;;;5.20;99.90;;;;;;6310293;22;20041;-75
2023/01/17 10:26:13;;;;;;;0.52;0.40;;;5.50;99.90;;;;;;6284250;22;20023;-76
2023/01/17 10:28:49;;;;;;;0.52;0.30;;;5.90;99.90;;;;;;6210843;22;20015;-76
2023/01/17 10:31:34;;;;;;;0.90;0.68;;;6.10;99.90;;;;;;6284695;22;20011;-74
2023/01/17 10:34:18;;;;;;;1.45;0.60;;;6.10;99.90;;;;;;6284036;22;20279;-75
2023/01/17 10:36:52;;;;;;;0.98;0.43;;;5.20;99.90;;;;;;6310030;22;20079;-75
2023/01/17 10:39:20;;;;;;;;;;;6.50;99.90;;;;;;6311020;22;20019;-75
2023/01/17 10:42:00;;;;;;;5.05;0.50;;;5.10;99.90;;;;;;6309100;22;19958;-76
2023/01/17 10:44:40;;;;;;;1.50;0.50;;;5.60;99.90;;;;;;6310356;22;20039;-75
2023/01/17 10:47:09;;;;;;;2.28;0.50;;;5.10;99.90;;;;;;6284130;22;20007;-77
2023/01/17 10:49:58;;;;;;;2.78;0.55;;;5.00;99.90;;;;;;6284238;22;20333;-73
2023/01/17 10:52:31;;;;;;;1.75;0.40;;;5.20;99.90;;;;;;6310013;22;20007;-76
2023/01/17 10:55:28;;;;;;;1.77;1.10;;;5.70;99.90;;;;;;6284537;22;20221;-75
2023/01/17 10:57:56;;;;;;;3.80;1.50;;;5.70;99.90;;;;;;6258781;22;20042;-77
2023/01/17 11:00:42;;;;;;;1.17;0.60;;;6.30;99.90;;;;;;6259817;22;20042;-77
2023/01/17 11:03:13;;;;;;;0.98;0.63;;;6.60;99.90;;;;;;6258767;22;20070;-75
2023/01/17 11:05:42;;;;;;;1.05;0.50;;;7.30;99.90;;;;;;6284091;22;20018;-75
2023/01/17 11:08:21;;;;;;;1.98;0.52;;;7.60;99.90;;;;;;6258474;22;20017;-75
2023/01/17 11:10:56;;;;;;;0.40;0.35;;;7.60;99.90;;;;;;6260226;22;20016;-77
2023/01/17 11:13:47;;;;;;;;;;;7.20;99.90;;;;;;6259616;22;20076;-78
2023/01/17 11:16:24;;;;;;;0.35;0.35;;;7.60;99.90;;;;;;6252695;22;19911;-76
2023/01/17 11:19:27;;;;;;;1.35;0.30;;;8.00;99.90;;;;;;6258160;22;20258;-75
2023/01/17 11:21:57;;;;;;;3.78;0.63;;;8.20;99.90;;;;;;6258649;22;20097;-75
2023/01/17 11:24:37;;;;;;;1.00;0.45;;;8.10;99.90;;;;;;6259068;22;20455;-76
2023/01/17 11:27:21;;;;;;;2.13;0.90;;;8.40;99.90;;;;;;6306678;22;20007;-78
2023/01/17 11:29:47;;;;;;;1.10;0.70;;;8.30;99.90;;;;;;6283971;22;20015;-76
2023/01/17 11:32:33;;;;;;;1.60;0.63;;;8.80;99.90;;;;;;6258656;22;20021;-76
2023/01/17 11:35:48;;;;;;;1.45;0.73;;;8.30;99.90;;;;;;6232639;22;20074;-80
2023/01/17 11:38:24;;;;;;;3.67;0.90;;;7.10;99.90;;;;;;6257246;22;20021;-74
2023/01/17 11:41:18;;;;;;;1.77;0.80;;;8.20;99.90;;;;;;6258247;22;20062;-75
2023/01/17 11:43:51;;;;;;;1.92;0.65;;;7.30;99.90;;;;;;6288022;22;20142;-77
2023/01/17 11:46:21;;;;;;;0.82;0.60;;;6.90;99.90;;;;;;6261792;22;20011;-76
2023/01/17 11:48:49;;;;;;;1.13;0.70;;;6.30;99.90;;;;;;6284203;22;20019;-78
2023/01/17 11:51:24;;;;;;;2.30;0.85;;;6.00;99.90;;;;;;6284748;22;20034;-79
2023/01/17 11:53:52;;;;;;;3.90;1.13;;;7.10;99.90;;;;;;6259450;22;20015;-77
2023/01/17 11:56:32;;;;;;;4.93;1.15;;;7.10;99.90;;;;;;6266930;22;20047;-76
2023/01/17 11:59:23;;;;;;;4.93;1.10;;;8.10;99.90;;;;;;6284759;22;20348;-78
2023/01/17 12:02:18;;;;;;;2.38;1.05;;;7.90;99.90;;;;;;6285183;22;20025;-76
2023/01/17 12:04:57;;;;;;;3.97;1.20;;;7.90;99.90;;;;;;6220345;22;20179;-76
2023/01/17 12:07:31;;;;;;;2.83;0.98;;;7.70;99.90;;;;;;6312794;22;20055;-77
2023/01/17 12:10:30;;;;;;;3.05;1.33;;;7.90;99.90;;;;;;6312108;22;20007;-76
2023/01/17 12:19:31;;;;;;;3.50;1.13;;;7.60;99.90;;;;;;6310877;22;20029;-77
2023/01/17 12:22:16;;;;;;;3.30;1.23;;;7.10;99.90;;;;;;6310539;22;20214;-75
2023/01/17 12:25:01;;;;;;;3.38;0.82;;;7.20;99.90;;;;;;6284272;22;20395;-76
2023/01/17 12:28:03;;;;;;;2.53;0.82;;;7.10;99.90;;;;;;6285479;22;20039;-76
2023/01/17 12:30:35;;;;;;;4.22;0.90;;;6.50;99.90;;;;;;6236809;22;20346;-76
2023/01/17 12:33:19;;;;;;;3.38;0.90;;;7.00;99.90;;;;;;6285102;22;20070;-75
2023/01/17 12:35:54;;;;;;;4.70;1.10;;;7.20;99.90;;;;;;6285645;22;20727;-76
2023/01/17 12:38:35;;;;;;;5.90;1.20;;;7.10;99.90;;;;;;6312346;22;20015;-78
2023/01/17 12:41:40;;;;;;;6.10;1.00;;;6.40;99.90;;;;;;6311315;22;20410;-75
2023/01/17 12:44:10;;;;;;;2.95;1.00;;;6.30;99.90;;;;;;6138284;23;20013;-78
2023/01/17 12:46:42;;;;;;;4.55;0.93;;;6.20;99.90;;;;;;6285201;22;20011;-75
2023/01/17 12:49:08;;;;;;;1.15;0.80;;;6.00;99.90;;;;;;6285814;22;20019;-76
2023/01/17 12:51:40;;;;;;;3.25;0.95;;;6.00;99.90;;;;;;6285417;22;20007;-77
2023/01/17 12:54:26;;;;;;;5.97;1.02;;;5.80;99.90;;;;;;6310619;22;20019;-76
2023/01/17 12:56:56;;;;;;;4.53;1.20;;;5.80;99.90;;;;;;6311393;22;20186;-76
2023/01/17 12:59:39;;;;;;;2.22;0.90;;;5.50;99.90;;;;;;6311814;22;20041;-76
2023/01/17 13:02:35;;;;;;;3.63;1.00;;;5.80;99.90;;;;;;6311961;22;20220;-76
2023/01/17 13:05:22;;;;;;;1.30;0.80;;;5.80;99.90;;;;;;6285363;22;20007;-77
2023/01/17 13:08:06;;;;;;;4.22;0.90;;;5.80;99.90;;;;;;6285112;22;20100;-77
2023/01/17 13:10:43;;;;;;;3.97;1.30;;;5.60;99.90;;;;;;6285238;22;20064;-77
2023/01/17 13:13:43;;;;;;;4.63;1.70;;;5.50;99.90;;;;;;6285052;22;20046;-77
2023/01/17 13:17:08;;;;;;;;;;;;;;;;;;;;;
2023/01/17 13:20:12;;;;;;;3.50;0.90;;;4.40;99.90;;;;;;6310270;22;20090;-76
2023/01/17 13:22:39;;;;;;;7.82;2.15;;;5.20;99.90;;;;;;6285072;22;20019;-77
2023/01/17 13:25:10;;;;;;;2.88;0.82;;;5.20;99.90;;;;;;6284817;22;20011;-79
2023/01/17 13:28:00;;;;;;;3.28;0.90;;;5.20;99.90;;;;;;6285087;22;20015;-77
2023/01/17 13:30:42;;;;;;;4.13;1.67;;;5.10;99.90;;;;;;6310640;22;20062;-79
2023/01/17 13:33:14;;;;;;;3.15;0.90;;;5.20;99.90;;;;;;6311126;22;20019;-79
2023/01/17 13:35:56;;;;;;;1.35;0.68;;;5.30;99.90;;;;;;6310664;22;20007;-77
2023/01/17 13:38:28;;;;;;;1.55;0.70;;;5.20;99.90;;;;;;6311360;22;20019;-78
2023/01/17 13:40:54;;;;;;;1.25;0.70;;;5.40;99.90;;;;;;6311393;22;20321;-77
2023/01/17 13:44:20;;;;;;;7.55;1.10;;;5.10;99.90;;;;;;6310500;22;20007;-76
2023/01/17 13:46:59;;;;;;;4.15;0.80;;;5.10;99.90;;;;;;6310505;22;20074;-77
2023/01/17 13:49:28;;;;;;;6.53;0.90;;;5.30;99.90;;;;;;6285160;22;20045;-78
2023/01/17 13:52:03;;;;;;;4.07;1.20;;;5.50;99.90;;;;;;6285473;22;20007;-79
2023/01/17 13:54:31;;;;;;;2.45;0.90;;;5.60;99.90;;;;;;6310215;22;20007;-76
2023/01/17 13:57:23;;;;;;;3.42;0.90;;;6.10;99.90;;;;;;6259354;22;20082;-77
2023/01/17 13:59:49;;;;;;;1.60;0.80;;;5.80;99.90;;;;;;6284999;22;20011;-76
2023/01/17 14:02:36;;;;;;;1.40;0.60;;;5.90;99.90;;;;;;6284570;22;20030;-77
2023/01/17 14:05:14;;;;;;;5.57;1.33;;;5.50;99.90;;;;;;6259417;22;20175;-78
2023/01/17 14:07:57;;;;;;;2.75;0.68;;;5.60;99.90;;;;;;6284402;22;20019;-77
2023/01/17 14:10:32;;;;;;;2.45;1.15;;;5.90;99.90;;;;;;6258937;22;20015;-77
2023/01/17 14:12:58;;;;;;;1.98;0.60;;;5.70;99.90;;;;;;6284978;22;20019;-77
2023/01/17 14:15:25;;;;;;;3.25;0.90;;;5.70;99.90;;;;;;6233350;22;20030;-77
2023/01/17 14:18:00;;;;;;;1.02;0.60;;;5.40;99.90;;;;;;6284975;22;20038;-77
2023/01/17 14:20:26;;;;;;;1.80;0.65;;;5.80;99.90;;;;;;6284322;22;20246;-78
2023/01/17 14:22:59;;;;;;;2.40;0.80;;;5.60;99.90;;;;;;6259302;22;20018;-78
2023/01/17 14:25:29;;;;;;;4.00;0.60;;;5.30;99.90;;;;;;6284230;22;20270;-78
2023/01/17 14:28:23;;;;;;;3.33;1.27;;;5.30;99.90;;;;;;6259410;22;20080;-75
2023/01/17 14:30:54;;;;;;;2.47;0.75;;;5.80;99.90;;;;;;6284609;22;20007;-75
2023/01/17 14:33:32;;;;;;;2.47;0.95;;;6.10;99.90;;;;;;6258913;22;20015;-78
2023/01/17 14:36:14;;;;;;;3.45;0.77;;;6.40;99.90;;;;;;6259734;22;20053;-77
2023/01/17 14:38:43;;;;;;;3.03;0.98;;;6.50;99.90;;;;;;6284372;22;20050;-77
2023/01/17 14:41:16;;;;;;;4.78;0.80;;;6.30;99.90;;;;;;6259101;22;20011;-79
2023/01/17 14:43:44;;;;;;;1.48;0.70;;;6.00;99.90;;;;;;6258934;22;20272;-76
2023/01/17 14:46:28;;;;;;;1.92;0.73;;;5.60;99.90;;;;;;6284306;22;20011;-77
2023/01/17 14:49:05;;;;;;;1.85;0.80;;;6.00;99.90;;;;;;6284822;22;20011;-77
2023/01/17 14:51:36;;;;;;;2.03;0.60;;;5.50;99.90;;;;;;6258604;22;20313;-78
2023/01/17 14:54:06;;;;;;;2.05;0.70;;;5.10;99.90;;;;;;6259848;22;20014;-77
2023/01/17 14:56:32;;;;;;;3.85;1.38;;;4.90;99.90;;;;;;6273183;22;20023;-77
2023/01/17 14:59:13;;;;;;;2.25;1.00;;;4.80;99.90;;;;;;6290137;22;20018;-78